createdAt,value
2023-04-09T00:00:00.180Z,92
2023-04-09T00:05:00.187Z,92.1
2023-04-09T00:10:00.150Z,92.1
2023-04-09T00:15:00.155Z,92.1
2023-04-09T00:20:00.123Z,92.1
2023-04-09T00:25:00.111Z,91.9
2023-04-09T00:30:00.164Z,91.8
2023-04-09T00:35:00.134Z,91.6
2023-04-09T00:40:00.120Z,91.3
2023-04-09T00:45:00.124Z,91.4
2023-04-09T00:50:00.128Z,91.2
2023-04-09T00:55:00.159Z,91.3
2023-04-09T01:00:00.152Z,91.4
2023-04-09T01:05:00.133Z,91.6
2023-04-09T01:10:00.131Z,91.8
2023-04-09T01:15:00.122Z,93.3
2023-04-09T01:20:00.128Z,92.2
2023-04-09T01:25:00.123Z,92.3
2023-04-09T01:30:00.127Z,92.5
2023-04-09T01:35:00.140Z,92.7
2023-04-09T01:40:00.188Z,93
2023-04-09T01:45:00.138Z,93.2
2023-04-09T01:50:00.128Z,93.4
2023-04-09T01:55:00.134Z,93.4
2023-04-09T02:00:00.137Z,93.4
2023-04-09T02:05:00.134Z,93.8
2023-04-09T02:10:00.147Z,93.8
2023-04-09T02:15:00.154Z,93.8
2023-04-09T02:20:00.134Z,94
2023-04-09T02:25:00.167Z,94.2
2023-04-09T02:30:00.140Z,94.3
2023-04-09T02:35:00.139Z,94.4
2023-04-09T02:40:00.108Z,94.4
2023-04-09T02:45:00.109Z,94.5
2023-04-09T02:50:00.167Z,94.8
2023-04-09T02:55:00.147Z,95.1
2023-04-09T03:00:00.149Z,95.2
2023-04-09T03:05:00.097Z,95.2
2023-04-09T03:10:00.130Z,95
2023-04-09T03:15:00.148Z,95
2023-04-09T03:20:00.121Z,94.8
2023-04-09T03:25:00.136Z,95.2
2023-04-09T03:30:00.200Z,95.4
2023-04-09T03:35:00.222Z,95.6
2023-04-09T03:40:00.168Z,95.8
2023-04-09T03:45:00.097Z,95.8
2023-04-09T03:50:00.176Z,95.7
2023-04-09T03:55:00.151Z,95.4
2023-04-09T04:00:00.177Z,95.2
2023-04-09T04:05:00.121Z,95.2
2023-04-09T04:10:00.176Z,95.2
2023-04-09T04:15:00.158Z,95.5
2023-04-09T04:20:00.122Z,96.1
2023-04-09T04:25:00.136Z,96.6
2023-04-09T04:30:00.214Z,97
2023-04-09T04:35:00.156Z,97.1
2023-04-09T04:40:00.160Z,97.5
2023-04-09T04:45:00.140Z,98.3
2023-04-09T04:50:00.093Z,98.5
2023-04-09T04:55:00.147Z,98.6
2023-04-09T05:00:00.147Z,98.5
2023-04-09T05:05:00.136Z,98.1
2023-04-09T05:10:00.146Z,97.4
2023-04-09T05:15:00.150Z,96.2
2023-04-09T05:20:00.102Z,95.2
2023-04-09T05:25:00.118Z,94
2023-04-09T05:30:00.954Z,93.2
2023-04-09T05:35:00.228Z,91.2
2023-04-09T05:40:00.143Z,89.9
2023-04-09T05:45:00.108Z,84.4
2023-04-09T05:50:00.193Z,80.6
2023-04-09T05:55:00.156Z,70.3
2023-04-09T06:00:00.148Z,64.3
2023-04-09T06:05:00.311Z,69.2
2023-04-09T06:10:00.118Z,72.6
2023-04-09T06:15:00.148Z,70.3
2023-04-09T06:20:00.151Z,70.2
2023-04-09T06:25:00.162Z,69.6
2023-04-09T06:30:00.173Z,66.2
2023-04-09T06:35:00.154Z,61.6
2023-04-09T06:40:01.514Z,50.5
2023-04-09T06:45:00.110Z,46
2023-04-09T06:50:00.129Z,39.6
2023-04-09T06:55:00.134Z,41
2023-04-09T07:00:00.159Z,43.6
2023-04-09T07:05:00.131Z,43.5
2023-04-09T07:10:00.161Z,41.8
2023-04-09T07:15:00.167Z,43
2023-04-09T07:20:00.293Z,44.4
2023-04-09T07:25:00.098Z,41.2
2023-04-09T07:30:00.115Z,40.8
2023-04-09T07:35:00.164Z,42
2023-04-09T07:40:00.157Z,39.2
2023-04-09T07:45:00.154Z,40.9
2023-04-09T07:50:00.145Z,39.9
2023-04-09T07:55:00.150Z,37.2
2023-04-09T08:00:00.192Z,36.2
2023-04-09T08:05:00.277Z,37.7
2023-04-09T08:10:00.122Z,37
2023-04-09T08:15:00.149Z,36
2023-04-09T08:20:00.141Z,36.6
2023-04-09T08:25:01.524Z,37.5
2023-04-09T08:30:00.108Z,37.3
2023-04-09T08:35:00.161Z,39.2
2023-04-09T08:40:00.143Z,37.2
2023-04-09T08:45:00.118Z,33.9
2023-04-09T08:50:00.156Z,32.3
2023-04-09T08:55:00.169Z,32.7
2023-04-09T09:00:00.136Z,32.3
2023-04-09T09:05:00.134Z,31.4
2023-04-09T09:10:00.125Z,32
2023-04-09T09:15:00.125Z,31.4
2023-04-09T09:20:00.128Z,31.7
2023-04-09T09:25:00.113Z,29.9
2023-04-09T09:30:00.109Z,30.1
2023-04-09T09:35:00.143Z,29.5
2023-04-09T09:40:00.107Z,28.8
2023-04-09T09:45:00.123Z,28.5
2023-04-09T09:50:00.103Z,27.6
2023-04-09T09:55:00.149Z,27.8
2023-04-09T10:00:00.140Z,27.9
2023-04-09T10:05:00.141Z,26.2
2023-04-09T10:10:00.152Z,26.8
2023-04-09T10:15:00.169Z,27.3
2023-04-09T10:20:00.147Z,27.5
2023-04-09T10:25:00.172Z,27.2
2023-04-09T10:30:00.204Z,27
2023-04-09T10:35:00.127Z,26.1
2023-04-09T10:40:00.163Z,25.7
2023-04-09T10:45:00.116Z,25.4
2023-04-09T10:50:00.127Z,25.7
2023-04-09T10:55:00.131Z,26.1
2023-04-09T11:00:00.140Z,25.9
2023-04-09T11:05:00.146Z,25.6
2023-04-09T11:10:00.138Z,25.6
2023-04-09T11:15:00.166Z,25.8
2023-04-09T11:20:00.133Z,25.8
2023-04-09T11:25:00.139Z,24.3
2023-04-09T11:30:00.165Z,25.4
2023-04-09T11:35:00.148Z,26
2023-04-09T11:40:00.149Z,26.3
2023-04-09T11:45:00.130Z,26.5
2023-04-09T11:50:00.132Z,27
2023-04-09T11:55:00.148Z,27.5
2023-04-09T12:00:00.552Z,28.4
2023-04-09T12:05:00.123Z,29.3
2023-04-09T12:10:00.120Z,28.6
2023-04-09T12:15:00.143Z,30.2
2023-04-09T12:20:00.101Z,31.8
2023-04-09T12:25:00.107Z,31.2
2023-04-09T12:30:00.148Z,30.9
2023-04-09T12:35:00.135Z,31.2
2023-04-09T12:40:00.114Z,31.8
2023-04-09T12:45:00.172Z,32.4
2023-04-09T12:50:00.143Z,33.9
2023-04-09T12:55:00.133Z,34
2023-04-09T13:00:00.180Z,34.6
2023-04-09T13:05:00.125Z,34.8
2023-04-09T13:10:00.131Z,35.3
2023-04-09T13:15:00.148Z,35.4
2023-04-09T13:20:00.147Z,35.5
2023-04-09T13:25:00.123Z,35.6
2023-04-09T13:30:00.144Z,35.7
2023-04-09T13:35:00.139Z,35.6
2023-04-09T13:40:00.188Z,35.4
2023-04-09T13:45:00.222Z,35.2
2023-04-09T13:50:00.135Z,35.7
2023-04-09T13:55:00.185Z,35.9
2023-04-09T14:00:00.134Z,36
2023-04-09T14:05:00.123Z,36.2
2023-04-09T14:10:00.154Z,36.3
2023-04-09T14:15:00.129Z,36.6
2023-04-09T14:20:00.154Z,36.5
2023-04-09T14:25:00.143Z,36.3
2023-04-09T14:30:00.160Z,36
2023-04-09T14:35:00.244Z,36
2023-04-09T14:40:00.120Z,36.3
2023-04-09T14:45:00.143Z,35.9
2023-04-09T14:50:00.223Z,36
2023-04-09T14:55:00.128Z,36.1
2023-04-09T15:00:00.133Z,36
2023-04-09T15:05:00.198Z,35.4
2023-04-09T15:10:00.133Z,35.1
2023-04-09T15:15:00.128Z,34.6
2023-04-09T15:20:00.178Z,34.4
2023-04-09T15:25:00.116Z,34
2023-04-09T15:30:00.154Z,34
2023-04-09T15:35:00.212Z,33.7
2023-04-09T15:40:00.191Z,33.7
2023-04-09T15:45:00.105Z,32.9
2023-04-09T15:50:00.143Z,32.7
2023-04-09T15:55:00.122Z,32.8
2023-04-09T16:00:00.152Z,32.6
2023-04-09T16:05:00.168Z,32.3
2023-04-09T16:10:00.154Z,32.5
2023-04-09T16:15:00.208Z,32.6
2023-04-09T16:20:00.184Z,33.1
2023-04-09T16:25:00.119Z,34.4
2023-04-09T16:30:00.169Z,35
2023-04-09T16:35:00.161Z,35.4
2023-04-09T16:40:00.113Z,35.6
2023-04-09T16:45:00.098Z,35.6
2023-04-09T16:50:00.156Z,35.8
2023-04-09T16:55:00.150Z,36
2023-04-09T17:00:00.166Z,36.2
2023-04-09T17:05:00.153Z,36.8
2023-04-09T17:10:00.085Z,37.1
2023-04-09T17:15:00.143Z,37
2023-04-09T17:20:00.175Z,37.5
2023-04-09T17:25:00.096Z,37.8
2023-04-09T17:30:00.143Z,38.1
2023-04-09T17:35:00.152Z,38.4
2023-04-09T17:40:00.144Z,39
2023-04-09T17:45:00.166Z,39.5
2023-04-09T17:50:00.170Z,39.8
2023-04-09T17:55:00.190Z,40
2023-04-09T18:00:00.169Z,40.3
2023-04-09T18:05:00.239Z,40.7
2023-04-09T18:10:00.106Z,40.9
2023-04-09T18:15:00.153Z,40.6
2023-04-09T18:20:00.144Z,41.4
2023-04-09T18:25:00.122Z,41.6
2023-04-09T18:30:00.133Z,40.6
2023-04-09T18:35:00.194Z,42.1
2023-04-09T18:40:01.962Z,42.2
2023-04-09T18:45:00.138Z,42.6
2023-04-09T18:50:00.179Z,42.8
2023-04-09T18:55:00.132Z,42.9
2023-04-09T19:00:00.154Z,43.3
2023-04-09T19:05:00.299Z,44.3
2023-04-09T19:10:00.115Z,44.8
2023-04-09T19:15:00.156Z,45.4
2023-04-09T19:20:00.184Z,45.8
2023-04-09T19:25:00.137Z,47.5
2023-04-09T19:30:00.159Z,48.1
2023-04-09T19:35:00.171Z,49.8
2023-04-09T19:40:00.220Z,50.7
2023-04-09T19:45:00.128Z,50.1
2023-04-09T19:50:00.167Z,50.4
2023-04-09T19:55:00.147Z,52.7
2023-04-09T20:00:00.186Z,52
2023-04-09T20:05:00.162Z,51.4
2023-04-09T20:10:00.120Z,51.2
2023-04-09T20:15:00.153Z,51.5
2023-04-09T20:20:00.170Z,51.9
2023-04-09T20:25:00.183Z,52.9
2023-04-09T20:30:00.157Z,54.1
2023-04-09T20:35:00.178Z,53.4
2023-04-09T20:40:00.156Z,54.9
2023-04-09T20:45:01.482Z,56.1
2023-04-09T20:50:00.189Z,57.9
2023-04-09T20:55:00.136Z,59.9
2023-04-09T21:00:00.126Z,59.9
2023-04-09T21:05:05.706Z,59.6
2023-04-09T21:10:00.142Z,59.5
2023-04-09T21:15:00.210Z,60.1
2023-04-09T21:20:00.123Z,60.3
2023-04-09T21:25:00.113Z,60.7
2023-04-09T21:30:00.146Z,60.9
2023-04-09T21:35:00.192Z,61.4
2023-04-09T21:40:00.151Z,61.9
2023-04-09T21:45:00.144Z,62.4
2023-04-09T21:50:00.154Z,62.3
2023-04-09T21:55:00.173Z,61.5
2023-04-09T22:00:00.156Z,62.9
2023-04-09T22:05:00.288Z,63.3
2023-04-09T22:10:00.162Z,63.2
2023-04-09T22:15:00.148Z,63.1
2023-04-09T22:20:00.173Z,63.5
2023-04-09T22:25:00.168Z,64.6
2023-04-09T22:30:00.173Z,68.4
2023-04-09T22:35:00.280Z,68.7
2023-04-09T22:40:00.155Z,68.7
2023-04-09T22:45:00.124Z,70.2
2023-04-09T22:50:00.111Z,71
2023-04-09T22:55:00.141Z,71.1
2023-04-09T23:00:00.178Z,72
2023-04-09T23:05:00.147Z,71.8
2023-04-09T23:10:00.118Z,71
2023-04-09T23:15:00.150Z,71.4
2023-04-09T23:20:00.192Z,73.1
2023-04-09T23:25:00.116Z,73.9
2023-04-09T23:30:00.123Z,74.6
2023-04-09T23:35:00.183Z,74.4
2023-04-09T23:40:00.123Z,73.8
2023-04-09T23:45:00.139Z,73.4
2023-04-09T23:50:00.164Z,73.5
2023-04-09T23:55:00.120Z,73.8
